sensor_id;sensor_type;location;lat;lon;timestamp;temperature;humidity
35559;DHT22;21661;50.794;-1.066;2023-01-10T00:00:22;7.70;99.90
35559;DHT22;21661;50.794;-1.066;2023-01-10T00:02:49;7.70;99.90
35559;DHT22;21661;50.794;-1.066;2023-01-10T00:05:14;7.70;99.90
35559;DHT22;21661;50.794;-1.066;2023-01-10T00:07:40;7.70;99.90
35559;DHT22;21661;50.794;-1.066;2023-01-10T00:10:06;7.60;99.90
35559;DHT22;21661;50.794;-1.066;2023-01-10T00:12:34;7.60;99.90
35559;DHT22;21661;50.794;-1.066;2023-01-10T00:15:19;7.60;99.90
35559;DHT22;21661;50.794;-1.066;2023-01-10T00:17:44;7.60;99.90
35559;DHT22;21661;50.794;-1.066;2023-01-10T00:20:10;7.60;99.90
35559;DHT22;21661;50.794;-1.066;2023-01-10T00:22:36;7.60;99.90
35559;DHT22;21661;50.794;-1.066;2023-01-10T00:25:02;7.60;99.90
35559;DHT22;21661;50.794;-1.066;2023-01-10T00:27:27;7.60;99.90
35559;DHT22;21661;50.794;-1.066;2023-01-10T00:29:53;7.60;99.90
35559;DHT22;21661;50.794;-1.066;2023-01-10T00:32:19;7.60;99.90
35559;DHT22;21661;50.794;-1.066;2023-01-10T00:34:45;7.60;99.90
35559;DHT22;21661;50.794;-1.066;2023-01-10T00:37:11;7.60;99.90
35559;DHT22;21661;50.794;-1.066;2023-01-10T00:39:37;7.70;99.90
35559;DHT22;21661;50.794;-1.066;2023-01-10T00:42:02;7.70;99.90
35559;DHT22;21661;50.794;-1.066;2023-01-10T00:44:46;7.70;99.90
35559;DHT22;21661;50.794;-1.066;2023-01-10T00:47:12;7.70;99.90
35559;DHT22;21661;50.794;-1.066;2023-01-10T00:49:38;7.70;99.90
35559;DHT22;21661;50.794;-1.066;2023-01-10T00:52:04;7.70;99.90
35559;DHT22;21661;50.794;-1.066;2023-01-10T00:54:30;7.70;99.90
35559;DHT22;21661;50.794;-1.066;2023-01-10T00:56:55;7.80;99.90
35559;DHT22;21661;50.794;-1.066;2023-01-10T00:59:21;7.80;99.90
35559;DHT22;21661;50.794;-1.066;2023-01-10T01:01:47;7.70;99.90
35559;DHT22;21661;50.794;-1.066;2023-01-10T01:04:13;7.80;99.90
35559;DHT22;21661;50.794;-1.066;2023-01-10T01:06:39;7.80;99.90
35559;DHT22;21661;50.794;-1.066;2023-01-10T01:09:04;7.80;99.90
35559;DHT22;21661;50.794;-1.066;2023-01-10T01:11:30;7.70;99.90
35559;DHT22;21661;50.794;-1.066;2023-01-10T01:13:55;7.80;99.90
35559;DHT22;21661;50.794;-1.066;2023-01-10T01:16:21;7.80;99.90
35559;DHT22;21661;50.794;-1.066;2023-01-10T01:18:47;7.80;99.90
35559;DHT22;21661;50.794;-1.066;2023-01-10T01:21:12;7.70;99.90
35559;DHT22;21661;50.794;-1.066;2023-01-10T01:23:38;7.80;99.90
35559;DHT22;21661;50.794;-1.066;2023-01-10T01:26:04;7.80;99.90
35559;DHT22;21661;50.794;-1.066;2023-01-10T01:28:30;7.80;99.90
35559;DHT22;21661;50.794;-1.066;2023-01-10T01:30:56;7.80;99.90
35559;DHT22;21661;50.794;-1.066;2023-01-10T01:33:22;7.90;99.90
35559;DHT22;21661;50.794;-1.066;2023-01-10T01:35:48;7.90;99.90
35559;DHT22;21661;50.794;-1.066;2023-01-10T01:38:16;7.90;99.90
35559;DHT22;21661;50.794;-1.066;2023-01-10T01:40:42;7.90;99.90
35559;DHT22;21661;50.794;-1.066;2023-01-10T01:45:47;8.00;99.90
35559;DHT22;21661;50.794;-1.066;2023-01-10T01:48:24;8.00;99.90
35559;DHT22;21661;50.794;-1.066;2023-01-10T01:54:21;8.10;99.90
35559;DHT22;21661;50.794;-1.066;2023-01-10T01:56:36;8.10;99.90
35559;DHT22;21661;50.794;-1.066;2023-01-10T02:01:38;8.10;99.90
35559;DHT22;21661;50.794;-1.066;2023-01-10T02:04:15;8.10;99.90
35559;DHT22;21661;50.794;-1.066;2023-01-10T02:06:44;8.10;99.90
35559;DHT22;21661;50.794;-1.066;2023-01-10T02:09:17;8.10;99.90
35559;DHT22;21661;50.794;-1.066;2023-01-10T02:11:45;8.20;99.90
35559;DHT22;21661;50.794;-1.066;2023-01-10T02:14:12;8.20;99.90
35559;DHT22;21661;50.794;-1.066;2023-01-10T02:16:39;8.20;99.90
35559;DHT22;21661;50.794;-1.066;2023-01-10T02:19:23;8.10;99.90
35559;DHT22;21661;50.794;-1.066;2023-01-10T02:28:07;8.30;99.90
35559;DHT22;21661;50.794;-1.066;2023-01-10T02:31:17;8.30;99.90
35559;DHT22;21661;50.794;-1.066;2023-01-10T02:39:33;8.30;99.90
35559;DHT22;21661;50.794;-1.066;2023-01-10T02:42:06;8.30;99.90
35559;DHT22;21661;50.794;-1.066;2023-01-10T02:47:19;8.20;99.90
35559;DHT22;21661;50.794;-1.066;2023-01-10T02:49:47;8.20;99.90
35559;DHT22;21661;50.794;-1.066;2023-01-10T02:52:23;8.20;99.90
35559;DHT22;21661;50.794;-1.066;2023-01-10T02:54:52;8.10;99.90
35559;DHT22;21661;50.794;-1.066;2023-01-10T03:00:42;8.10;99.90
35559;DHT22;21661;50.794;-1.066;2023-01-10T03:08:47;8.20;99.90
35559;DHT22;21661;50.794;-1.066;2023-01-10T03:11:14;8.20;99.90
35559;DHT22;21661;50.794;-1.066;2023-01-10T03:13:52;8.20;99.90
35559;DHT22;21661;50.794;-1.066;2023-01-10T03:16:28;8.20;99.90
35559;DHT22;21661;50.794;-1.066;2023-01-10T03:19:01;8.20;99.90
35559;DHT22;21661;50.794;-1.066;2023-01-10T03:21:29;8.20;99.90
35559;DHT22;21661;50.794;-1.066;2023-01-10T03:23:59;8.20;99.90
35559;DHT22;21661;50.794;-1.066;2023-01-10T03:26:30;8.20;99.90
35559;DHT22;21661;50.794;-1.066;2023-01-10T03:29:05;8.20;99.90
35559;DHT22;21661;50.794;-1.066;2023-01-10T03:31:59;8.20;99.90
35559;DHT22;21661;50.794;-1.066;2023-01-10T03:34:24;8.20;99.90
35559;DHT22;21661;50.794;-1.066;2023-01-10T03:37:43;8.20;99.90
35559;DHT22;21661;50.794;-1.066;2023-01-10T03:42:21;8.20;99.90
35559;DHT22;21661;50.794;-1.066;2023-01-10T03:45:10;8.20;99.90
35559;DHT22;21661;50.794;-1.066;2023-01-10T03:47:42;8.30;99.90
35559;DHT22;21661;50.794;-1.066;2023-01-10T03:52:36;8.30;99.90
35559;DHT22;21661;50.794;-1.066;2023-01-10T03:55:04;8.40;99.90
35559;DHT22;21661;50.794;-1.066;2023-01-10T03:57:30;8.40;99.90
35559;DHT22;21661;50.794;-1.066;2023-01-10T03:59:57;8.50;99.90
35559;DHT22;21661;50.794;-1.066;2023-01-10T04:02:29;8.40;99.90
35559;DHT22;21661;50.794;-1.066;2023-01-10T04:04:55;8.50;99.90
35559;DHT22;21661;50.794;-1.066;2023-01-10T04:07:21;8.50;99.90
35559;DHT22;21661;50.794;-1.066;2023-01-10T04:09:46;8.60;99.90
35559;DHT22;21661;50.794;-1.066;2023-01-10T04:12:12;8.60;99.90
35559;DHT22;21661;50.794;-1.066;2023-01-10T04:14:37;8.60;99.90
35559;DHT22;21661;50.794;-1.066;2023-01-10T04:17:03;8.60;99.90
35559;DHT22;21661;50.794;-1.066;2023-01-10T04:19:29;8.60;99.90
35559;DHT22;21661;50.794;-1.066;2023-01-10T04:21:54;8.70;99.90
35559;DHT22;21661;50.794;-1.066;2023-01-10T04:24:20;8.70;99.90
35559;DHT22;21661;50.794;-1.066;2023-01-10T04:26:46;8.80;99.90
35559;DHT22;21661;50.794;-1.066;2023-01-10T04:29:12;8.80;99.90
35559;DHT22;21661;50.794;-1.066;2023-01-10T04:31:37;8.80;99.90
35559;DHT22;21661;50.794;-1.066;2023-01-10T04:34:05;8.80;99.90
35559;DHT22;21661;50.794;-1.066;2023-01-10T04:36:31;8.80;99.90
35559;DHT22;21661;50.794;-1.066;2023-01-10T04:38:56;8.80;99.90
35559;DHT22;21661;50.794;-1.066;2023-01-10T04:41:22;8.90;99.90
35559;DHT22;21661;50.794;-1.066;2023-01-10T04:43:48;8.90;99.90
35559;DHT22;21661;50.794;-1.066;2023-01-10T04:46:14;8.80;99.90
35559;DHT22;21661;50.794;-1.066;2023-01-10T04:48:40;8.90;99.90
35559;DHT22;21661;50.794;-1.066;2023-01-10T04:51:05;8.90;99.90
35559;DHT22;21661;50.794;-1.066;2023-01-10T04:53:31;9.00;99.90
35559;DHT22;21661;50.794;-1.066;2023-01-10T04:56:04;9.10;99.90
35559;DHT22;21661;50.794;-1.066;2023-01-10T04:58:37;9.10;99.90
35559;DHT22;21661;50.794;-1.066;2023-01-10T05:01:16;9.10;99.90
35559;DHT22;21661;50.794;-1.066;2023-01-10T05:03:42;9.20;99.90
35559;DHT22;21661;50.794;-1.066;2023-01-10T05:06:08;9.20;99.90
35559;DHT22;21661;50.794;-1.066;2023-01-10T05:08:34;9.20;99.90
35559;DHT22;21661;50.794;-1.066;2023-01-10T05:11:00;9.20;99.90
35559;DHT22;21661;50.794;-1.066;2023-01-10T05:13:26;9.30;99.90
35559;DHT22;21661;50.794;-1.066;2023-01-10T05:16:00;9.20;99.90
35559;DHT22;21661;50.794;-1.066;2023-01-10T05:18:27;9.20;99.90
35559;DHT22;21661;50.794;-1.066;2023-01-10T05:21:02;9.20;99.90
35559;DHT22;21661;50.794;-1.066;2023-01-10T05:23:28;9.20;99.90
35559;DHT22;21661;50.794;-1.066;2023-01-10T05:25:54;9.20;99.90
35559;DHT22;21661;50.794;-1.066;2023-01-10T05:28:19;9.20;99.90
35559;DHT22;21661;50.794;-1.066;2023-01-10T05:30:45;9.20;99.90
35559;DHT22;21661;50.794;-1.066;2023-01-10T05:33:11;9.10;99.90
35559;DHT22;21661;50.794;-1.066;2023-01-10T05:35:36;9.10;99.90
35559;DHT22;21661;50.794;-1.066;2023-01-10T05:38:02;9.10;99.90
35559;DHT22;21661;50.794;-1.066;2023-01-10T05:40:27;9.00;99.90
35559;DHT22;21661;50.794;-1.066;2023-01-10T05:42:53;9.00;99.90
35559;DHT22;21661;50.794;-1.066;2023-01-10T05:45:19;9.00;99.90
35559;DHT22;21661;50.794;-1.066;2023-01-10T05:47:44;9.10;99.90
35559;DHT22;21661;50.794;-1.066;2023-01-10T05:50:10;9.10;99.90
35559;DHT22;21661;50.794;-1.066;2023-01-10T05:52:36;9.20;99.90
35559;DHT22;21661;50.794;-1.066;2023-01-10T05:55:01;9.20;99.90
35559;DHT22;21661;50.794;-1.066;2023-01-10T05:57:27;9.20;99.90
35559;DHT22;21661;50.794;-1.066;2023-01-10T05:59:53;9.10;99.90
35559;DHT22;21661;50.794;-1.066;2023-01-10T06:02:18;9.10;99.90
35559;DHT22;21661;50.794;-1.066;2023-01-10T06:04:44;9.10;99.90
35559;DHT22;21661;50.794;-1.066;2023-01-10T06:07:09;9.10;99.90
35559;DHT22;21661;50.794;-1.066;2023-01-10T06:09:35;9.00;99.90
35559;DHT22;21661;50.794;-1.066;2023-01-10T06:12:01;9.00;99.90
35559;DHT22;21661;50.794;-1.066;2023-01-10T06:14:26;9.00;99.90
35559;DHT22;21661;50.794;-1.066;2023-01-10T06:16:52;9.00;99.90
35559;DHT22;21661;50.794;-1.066;2023-01-10T06:19:17;9.00;99.90
35559;DHT22;21661;50.794;-1.066;2023-01-10T06:21:43;9.00;99.90
35559;DHT22;21661;50.794;-1.066;2023-01-10T06:24:09;9.00;99.90
35559;DHT22;21661;50.794;-1.066;2023-01-10T06:26:35;9.00;99.90
35559;DHT22;21661;50.794;-1.066;2023-01-10T06:29:00;9.00;99.90
35559;DHT22;21661;50.794;-1.066;2023-01-10T06:31:26;9.00;99.90
35559;DHT22;21661;50.794;-1.066;2023-01-10T06:33:52;9.00;99.90
35559;DHT22;21661;50.794;-1.066;2023-01-10T06:36:18;9.00;99.90
35559;DHT22;21661;50.794;-1.066;2023-01-10T06:38:43;9.00;99.90
35559;DHT22;21661;50.794;-1.066;2023-01-10T06:41:09;9.10;99.90
35559;DHT22;21661;50.794;-1.066;2023-01-10T06:43:44;9.00;99.90
35559;DHT22;21661;50.794;-1.066;2023-01-10T06:46:13;9.00;99.90
35559;DHT22;21661;50.794;-1.066;2023-01-10T06:48:41;9.10;99.90
35559;DHT22;21661;50.794;-1.066;2023-01-10T06:51:08;8.90;99.90
35559;DHT22;21661;50.794;-1.066;2023-01-10T06:53:34;8.90;99.90
35559;DHT22;21661;50.794;-1.066;2023-01-10T06:55:59;9.00;99.90
35559;DHT22;21661;50.794;-1.066;2023-01-10T06:58:25;9.00;99.90
35559;DHT22;21661;50.794;-1.066;2023-01-10T07:00:51;9.00;99.90
35559;DHT22;21661;50.794;-1.066;2023-01-10T07:03:16;9.00;99.90
35559;DHT22;21661;50.794;-1.066;2023-01-10T07:05:42;8.90;99.90
35559;DHT22;21661;50.794;-1.066;2023-01-10T07:08:07;8.90;99.90
35559;DHT22;21661;50.794;-1.066;2023-01-10T07:10:33;8.90;99.90
35559;DHT22;21661;50.794;-1.066;2023-01-10T07:12:59;8.90;99.90
35559;DHT22;21661;50.794;-1.066;2023-01-10T07:15:25;8.90;99.90
35559;DHT22;21661;50.794;-1.066;2023-01-10T07:17:51;8.90;99.90
35559;DHT22;21661;50.794;-1.066;2023-01-10T07:20:17;8.90;99.90
35559;DHT22;21661;50.794;-1.066;2023-01-10T07:22:43;8.90;99.90
35559;DHT22;21661;50.794;-1.066;2023-01-10T07:25:08;8.80;99.90
35559;DHT22;21661;50.794;-1.066;2023-01-10T07:27:34;8.70;99.90
35559;DHT22;21661;50.794;-1.066;2023-01-10T07:30:00;8.50;99.90
35559;DHT22;21661;50.794;-1.066;2023-01-10T07:32:26;8.50;99.90
35559;DHT22;21661;50.794;-1.066;2023-01-10T07:34:52;8.50;99.90
35559;DHT22;21661;50.794;-1.066;2023-01-10T07:37:17;8.50;99.90
35559;DHT22;21661;50.794;-1.066;2023-01-10T07:39:43;8.50;99.90
35559;DHT22;21661;50.794;-1.066;2023-01-10T07:42:09;8.50;99.90
35559;DHT22;21661;50.794;-1.066;2023-01-10T07:44:34;8.50;99.90
35559;DHT22;21661;50.794;-1.066;2023-01-10T07:47:00;8.50;99.90
35559;DHT22;21661;50.794;-1.066;2023-01-10T07:49:25;8.50;99.90
35559;DHT22;21661;50.794;-1.066;2023-01-10T07:51:51;8.50;99.90
35559;DHT22;21661;50.794;-1.066;2023-01-10T07:54:17;8.50;99.90
35559;DHT22;21661;50.794;-1.066;2023-01-10T07:56:42;8.50;99.90
35559;DHT22;21661;50.794;-1.066;2023-01-10T07:59:08;8.50;99.90
35559;DHT22;21661;50.794;-1.066;2023-01-10T08:01:34;8.50;99.90
35559;DHT22;21661;50.794;-1.066;2023-01-10T08:04:00;8.40;99.90
35559;DHT22;21661;50.794;-1.066;2023-01-10T08:06:25;8.50;99.90
35559;DHT22;21661;50.794;-1.066;2023-01-10T08:08:51;8.50;99.90
35559;DHT22;21661;50.794;-1.066;2023-01-10T08:11:17;8.50;99.90
35559;DHT22;21661;50.794;-1.066;2023-01-10T08:13:42;8.40;99.90
35559;DHT22;21661;50.794;-1.066;2023-01-10T08:16:08;8.40;99.90
35559;DHT22;21661;50.794;-1.066;2023-01-10T08:18:34;8.50;99.90
35559;DHT22;21661;50.794;-1.066;2023-01-10T08:20:59;8.50;99.90
35559;DHT22;21661;50.794;-1.066;2023-01-10T08:23:25;8.50;99.90
35559;DHT22;21661;50.794;-1.066;2023-01-10T08:25:51;8.50;99.90
35559;DHT22;21661;50.794;-1.066;2023-01-10T08:28:17;8.50;99.90
35559;DHT22;21661;50.794;-1.066;2023-01-10T08:30:43;8.60;99.90
35559;DHT22;21661;50.794;-1.066;2023-01-10T08:33:09;8.60;99.90
35559;DHT22;21661;50.794;-1.066;2023-01-10T08:35:37;8.60;99.90
35559;DHT22;21661;50.794;-1.066;2023-01-10T08:38:03;8.60;99.90
35559;DHT22;21661;50.794;-1.066;2023-01-10T08:40:29;8.60;99.90
35559;DHT22;21661;50.794;-1.066;2023-01-10T08:42:58;8.70;99.90
35559;DHT22;21661;50.794;-1.066;2023-01-10T08:45:25;8.70;99.90
35559;DHT22;21661;50.794;-1.066;2023-01-10T08:47:51;8.70;99.90
35559;DHT22;21661;50.794;-1.066;2023-01-10T08:50:17;8.70;99.90
35559;DHT22;21661;50.794;-1.066;2023-01-10T08:52:42;8.70;99.90
35559;DHT22;21661;50.794;-1.066;2023-01-10T08:55:08;8.70;99.90
35559;DHT22;21661;50.794;-1.066;2023-01-10T08:57:34;8.80;99.90
35559;DHT22;21661;50.794;-1.066;2023-01-10T09:00:00;8.80;99.90
35559;DHT22;21661;50.794;-1.066;2023-01-10T09:02:25;8.80;99.90
35559;DHT22;21661;50.794;-1.066;2023-01-10T09:04:51;8.80;99.90
35559;DHT22;21661;50.794;-1.066;2023-01-10T09:07:16;8.80;99.90
35559;DHT22;21661;50.794;-1.066;2023-01-10T09:09:42;8.80;99.90
35559;DHT22;21661;50.794;-1.066;2023-01-10T09:12:08;8.90;99.90
35559;DHT22;21661;50.794;-1.066;2023-01-10T09:14:52;8.90;99.90
35559;DHT22;21661;50.794;-1.066;2023-01-10T09:17:18;8.90;99.90
35559;DHT22;21661;50.794;-1.066;2023-01-10T09:19:44;8.90;99.90
35559;DHT22;21661;50.794;-1.066;2023-01-10T09:22:09;8.90;99.90
35559;DHT22;21661;50.794;-1.066;2023-01-10T09:24:35;9.00;99.90
35559;DHT22;21661;50.794;-1.066;2023-01-10T09:27:02;9.00;99.90
35559;DHT22;21661;50.794;-1.066;2023-01-10T09:29:28;9.00;99.90
35559;DHT22;21661;50.794;-1.066;2023-01-10T09:31:53;9.10;99.90
35559;DHT22;21661;50.794;-1.066;2023-01-10T09:34:19;9.10;99.90
35559;DHT22;21661;50.794;-1.066;2023-01-10T09:36:46;9.10;99.90
35559;DHT22;21661;50.794;-1.066;2023-01-10T09:39:12;9.20;99.90
35559;DHT22;21661;50.794;-1.066;2023-01-10T09:41:48;9.30;99.90
35559;DHT22;21661;50.794;-1.066;2023-01-10T09:52:43;9.50;99.90
35559;DHT22;21661;50.794;-1.066;2023-01-10T09:55:29;9.50;99.90
35559;DHT22;21661;50.794;-1.066;2023-01-10T09:57:57;9.60;99.90
35559;DHT22;21661;50.794;-1.066;2023-01-10T10:01:20;9.60;99.90
35559;DHT22;21661;50.794;-1.066;2023-01-10T10:06:38;9.70;99.90
35559;DHT22;21661;50.794;-1.066;2023-01-10T10:09:03;9.80;99.90
35559;DHT22;21661;50.794;-1.066;2023-01-10T10:11:38;9.80;99.90
35559;DHT22;21661;50.794;-1.066;2023-01-10T10:14:15;9.80;99.90
35559;DHT22;21661;50.794;-1.066;2023-01-10T10:20:05;9.90;99.90
35559;DHT22;21661;50.794;-1.066;2023-01-10T10:22:49;10.00;99.90
35559;DHT22;21661;50.794;-1.066;2023-01-10T10:28:20;10.10;99.90
35559;DHT22;21661;50.794;-1.066;2023-01-10T10:36:19;10.40;99.90
35559;DHT22;21661;50.794;-1.066;2023-01-10T10:38:46;10.50;99.90
35559;DHT22;21661;50.794;-1.066;2023-01-10T10:41:17;10.50;99.90
35559;DHT22;21661;50.794;-1.066;2023-01-10T10:43:46;10.60;99.90
35559;DHT22;21661;50.794;-1.066;2023-01-10T10:46:14;10.70;99.90
35559;DHT22;21661;50.794;-1.066;2023-01-10T10:49:05;10.80;99.90
35559;DHT22;21661;50.794;-1.066;2023-01-10T10:51:33;10.90;99.90
35559;DHT22;21661;50.794;-1.066;2023-01-10T10:54:03;10.90;99.90
35559;DHT22;21661;50.794;-1.066;2023-01-10T10:56:31;11.00;99.90
35559;DHT22;21661;50.794;-1.066;2023-01-10T10:58:58;11.00;99.90
35559;DHT22;21661;50.794;-1.066;2023-01-10T11:01:24;11.10;99.90
35559;DHT22;21661;50.794;-1.066;2023-01-10T11:04:12;11.20;99.90
35559;DHT22;21661;50.794;-1.066;2023-01-10T11:06:39;11.20;99.90
35559;DHT22;21661;50.794;-1.066;2023-01-10T11:09:06;11.30;99.90
35559;DHT22;21661;50.794;-1.066;2023-01-10T11:11:36;11.50;99.90
35559;DHT22;21661;50.794;-1.066;2023-01-10T11:14:05;11.40;99.90
35559;DHT22;21661;50.794;-1.066;2023-01-10T11:16:37;11.40;99.90
35559;DHT22;21661;50.794;-1.066;2023-01-10T11:19:26;11.50;99.90
35559;DHT22;21661;50.794;-1.066;2023-01-10T11:22:00;11.60;99.90
35559;DHT22;21661;50.794;-1.066;2023-01-10T11:24:33;11.60;99.90
35559;DHT22;21661;50.794;-1.066;2023-01-10T11:27:21;11.70;99.90
35559;DHT22;21661;50.794;-1.066;2023-01-10T11:29:49;11.70;99.90
35559;DHT22;21661;50.794;-1.066;2023-01-10T11:32:22;11.80;99.90
35559;DHT22;21661;50.794;-1.066;2023-01-10T11:34:55;11.90;99.90
35559;DHT22;21661;50.794;-1.066;2023-01-10T11:37:28;11.90;99.90
35559;DHT22;21661;50.794;-1.066;2023-01-10T11:42:45;11.90;99.90
35559;DHT22;21661;50.794;-1.066;2023-01-10T11:47:45;12.00;99.90
35559;DHT22;21661;50.794;-1.066;2023-01-10T11:50:21;11.90;99.90
35559;DHT22;21661;50.794;-1.066;2023-01-10T11:52:47;12.00;99.90
35559;DHT22;21661;50.794;-1.066;2023-01-10T11:55:25;12.00;99.90
35559;DHT22;21661;50.794;-1.066;2023-01-10T11:58:05;12.10;99.90
35559;DHT22;21661;50.794;-1.066;2023-01-10T12:00:41;12.10;99.90
35559;DHT22;21661;50.794;-1.066;2023-01-10T12:03:24;12.10;99.90
35559;DHT22;21661;50.794;-1.066;2023-01-10T12:05:59;12.20;99.90
35559;DHT22;21661;50.794;-1.066;2023-01-10T12:08:33;12.20;99.90
35559;DHT22;21661;50.794;-1.066;2023-01-10T12:11:23;12.20;99.90
35559;DHT22;21661;50.794;-1.066;2023-01-10T12:13:54;12.20;99.90
35559;DHT22;21661;50.794;-1.066;2023-01-10T12:16:27;12.30;99.90
35559;DHT22;21661;50.794;-1.066;2023-01-10T12:19:01;12.20;99.90
35559;DHT22;21661;50.794;-1.066;2023-01-10T12:21:45;12.30;99.90
35559;DHT22;21661;50.794;-1.066;2023-01-10T12:26:36;12.30;99.90
35559;DHT22;21661;50.794;-1.066;2023-01-10T12:29:17;12.30;99.90
35559;DHT22;21661;50.794;-1.066;2023-01-10T12:31:44;12.30;99.90
35559;DHT22;21661;50.794;-1.066;2023-01-10T12:34:17;12.30;99.90
35559;DHT22;21661;50.794;-1.066;2023-01-10T12:39:38;12.20;99.90
35559;DHT22;21661;50.794;-1.066;2023-01-10T12:45:13;12.30;99.90
35559;DHT22;21661;50.794;-1.066;2023-01-10T12:48:03;12.30;99.90
35559;DHT22;21661;50.794;-1.066;2023-01-10T12:55:41;12.40;99.90
35559;DHT22;21661;50.794;-1.066;2023-01-10T12:58:26;12.40;99.90
35559;DHT22;21661;50.794;-1.066;2023-01-10T13:00:57;12.30;99.90
35559;DHT22;21661;50.794;-1.066;2023-01-10T13:03:31;12.30;99.90
35559;DHT22;21661;50.794;-1.066;2023-01-10T13:05:58;12.30;99.90
35559;DHT22;21661;50.794;-1.066;2023-01-10T13:08:31;12.30;99.90
35559;DHT22;21661;50.794;-1.066;2023-01-10T13:10:58;12.30;99.90
35559;DHT22;21661;50.794;-1.066;2023-01-10T13:13:43;12.40;99.90
35559;DHT22;21661;50.794;-1.066;2023-01-10T13:21:30;12.50;99.90
35559;DHT22;21661;50.794;-1.066;2023-01-10T13:24:43;12.50;99.90
35559;DHT22;21661;50.794;-1.066;2023-01-10T13:27:01;12.50;99.90
35559;DHT22;21661;50.794;-1.066;2023-01-10T13:29:30;12.50;99.90
35559;DHT22;21661;50.794;-1.066;2023-01-10T13:31:58;12.50;99.90
35559;DHT22;21661;50.794;-1.066;2023-01-10T13:34:31;12.60;99.90
35559;DHT22;21661;50.794;-1.066;2023-01-10T13:37:00;12.60;99.90
35559;DHT22;21661;50.794;-1.066;2023-01-10T13:39:34;12.60;99.90
35559;DHT22;21661;50.794;-1.066;2023-01-10T13:55:31;12.80;99.90
35559;DHT22;21661;50.794;-1.066;2023-01-10T14:00:50;12.70;99.90
35559;DHT22;21661;50.794;-1.066;2023-01-10T14:03:52;12.80;99.90
35559;DHT22;21661;50.794;-1.066;2023-01-10T14:06:32;12.70;99.90
35559;DHT22;21661;50.794;-1.066;2023-01-10T14:09:43;12.70;99.90
35559;DHT22;21661;50.794;-1.066;2023-01-10T14:12:49;12.70;99.90
35559;DHT22;21661;50.794;-1.066;2023-01-10T14:15:36;12.70;99.90
35559;DHT22;21661;50.794;-1.066;2023-01-10T14:18:04;12.70;99.90
35559;DHT22;21661;50.794;-1.066;2023-01-10T14:20:33;12.70;99.90
35559;DHT22;21661;50.794;-1.066;2023-01-10T14:23:19;12.70;99.90
35559;DHT22;21661;50.794;-1.066;2023-01-10T14:25:52;12.60;99.90
35559;DHT22;21661;50.794;-1.066;2023-01-10T14:28:24;12.60;99.90
35559;DHT22;21661;50.794;-1.066;2023-01-10T14:31:17;12.60;99.90
35559;DHT22;21661;50.794;-1.066;2023-01-10T14:33:44;12.50;99.90
35559;DHT22;21661;50.794;-1.066;2023-01-10T14:36:29;12.50;99.90
35559;DHT22;21661;50.794;-1.066;2023-01-10T14:38:58;12.50;99.90
35559;DHT22;21661;50.794;-1.066;2023-01-10T14:41:36;12.50;99.90
35559;DHT22;21661;50.794;-1.066;2023-01-10T14:44:12;12.50;99.90
35559;DHT22;21661;50.794;-1.066;2023-01-10T14:46:51;12.50;99.90
35559;DHT22;21661;50.794;-1.066;2023-01-10T14:49:25;12.50;99.90
35559;DHT22;21661;50.794;-1.066;2023-01-10T14:51:53;12.40;99.90
35559;DHT22;21661;50.794;-1.066;2023-01-10T14:54:26;12.40;99.90
35559;DHT22;21661;50.794;-1.066;2023-01-10T14:56:54;12.40;99.90
35559;DHT22;21661;50.794;-1.066;2023-01-10T14:59:28;12.40;99.90
35559;DHT22;21661;50.794;-1.066;2023-01-10T15:01:59;12.40;99.90
35559;DHT22;21661;50.794;-1.066;2023-01-10T15:04:27;12.40;99.90
35559;DHT22;21661;50.794;-1.066;2023-01-10T15:07:11;12.40;99.90
35559;DHT22;21661;50.794;-1.066;2023-01-10T15:09:37;12.40;99.90
35559;DHT22;21661;50.794;-1.066;2023-01-10T15:12:05;12.50;99.90
35559;DHT22;21661;50.794;-1.066;2023-01-10T15:14:32;12.50;99.90
35559;DHT22;21661;50.794;-1.066;2023-01-10T15:17:01;12.50;99.90
35559;DHT22;21661;50.794;-1.066;2023-01-10T15:19:33;12.50;99.90
35559;DHT22;21661;50.794;-1.066;2023-01-10T15:22:00;12.50;99.90
35559;DHT22;21661;50.794;-1.066;2023-01-10T15:26:59;12.60;99.90
35559;DHT22;21661;50.794;-1.066;2023-01-10T15:29:26;12.50;99.90
35559;DHT22;21661;50.794;-1.066;2023-01-10T15:31:53;12.60;99.90
35559;DHT22;21661;50.794;-1.066;2023-01-10T15:34:25;12.60;99.90
35559;DHT22;21661;50.794;-1.066;2023-01-10T15:36:58;12.60;99.90
35559;DHT22;21661;50.794;-1.066;2023-01-10T15:39:31;12.60;99.90
35559;DHT22;21661;50.794;-1.066;2023-01-10T15:42:19;12.50;99.90
35559;DHT22;21661;50.794;-1.066;2023-01-10T15:44:46;12.50;99.90
35559;DHT22;21661;50.794;-1.066;2023-01-10T15:52:59;12.40;99.90
35559;DHT22;21661;50.794;-1.066;2023-01-10T15:55:50;12.40;99.90
35559;DHT22;21661;50.794;-1.066;2023-01-10T15:58:33;12.40;99.90
35559;DHT22;21661;50.794;-1.066;2023-01-10T16:01:00;12.40;99.90
35559;DHT22;21661;50.794;-1.066;2023-01-10T16:03:37;12.50;99.90
35559;DHT22;21661;50.794;-1.066;2023-01-10T16:06:04;12.50;99.90
35559;DHT22;21661;50.794;-1.066;2023-01-10T16:08:36;12.40;99.90
35559;DHT22;21661;50.794;-1.066;2023-01-10T16:11:21;12.40;99.90
35559;DHT22;21661;50.794;-1.066;2023-01-10T16:14:07;12.40;99.90
35559;DHT22;21661;50.794;-1.066;2023-01-10T16:16:33;12.40;99.90
35559;DHT22;21661;50.794;-1.066;2023-01-10T16:18:59;12.40;99.90
35559;DHT22;21661;50.794;-1.066;2023-01-10T16:21:30;12.40;99.90
35559;DHT22;21661;50.794;-1.066;2023-01-10T16:23:59;12.40;99.90
35559;DHT22;21661;50.794;-1.066;2023-01-10T16:26:27;12.40;99.90
35559;DHT22;21661;50.794;-1.066;2023-01-10T16:28:56;12.40;99.90
35559;DHT22;21661;50.794;-1.066;2023-01-10T16:31:24;12.40;99.90
35559;DHT22;21661;50.794;-1.066;2023-01-10T16:33:51;12.40;99.90
35559;DHT22;21661;50.794;-1.066;2023-01-10T16:36:18;12.40;99.90
35559;DHT22;21661;50.794;-1.066;2023-01-10T16:38:45;12.40;99.90
35559;DHT22;21661;50.794;-1.066;2023-01-10T16:41:12;12.30;99.90
35559;DHT22;21661;50.794;-1.066;2023-01-10T16:43:56;12.40;99.90
35559;DHT22;21661;50.794;-1.066;2023-01-10T16:46:22;12.40;99.90
35559;DHT22;21661;50.794;-1.066;2023-01-10T16:48:49;12.40;99.90
35559;DHT22;21661;50.794;-1.066;2023-01-10T16:51:19;12.40;99.90
35559;DHT22;21661;50.794;-1.066;2023-01-10T16:53:45;12.40;99.90
35559;DHT22;21661;50.794;-1.066;2023-01-10T16:56:14;12.30;99.90
35559;DHT22;21661;50.794;-1.066;2023-01-10T16:58:39;12.30;99.90
35559;DHT22;21661;50.794;-1.066;2023-01-10T17:01:05;12.30;99.90
35559;DHT22;21661;50.794;-1.066;2023-01-10T17:03:34;12.30;99.90
35559;DHT22;21661;50.794;-1.066;2023-01-10T17:06:02;12.30;99.90
35559;DHT22;21661;50.794;-1.066;2023-01-10T17:08:28;12.30;99.90
35559;DHT22;21661;50.794;-1.066;2023-01-10T17:10:58;12.30;99.90
35559;DHT22;21661;50.794;-1.066;2023-01-10T17:13:28;12.30;99.90
35559;DHT22;21661;50.794;-1.066;2023-01-10T17:15:55;12.30;99.90
35559;DHT22;21661;50.794;-1.066;2023-01-10T17:18:23;12.30;99.90
35559;DHT22;21661;50.794;-1.066;2023-01-10T17:20:50;12.40;99.90
35559;DHT22;21661;50.794;-1.066;2023-01-10T17:23:16;12.40;99.90
35559;DHT22;21661;50.794;-1.066;2023-01-10T17:25:42;12.40;99.90
35559;DHT22;21661;50.794;-1.066;2023-01-10T17:28:10;12.40;99.90
35559;DHT22;21661;50.794;-1.066;2023-01-10T17:30:38;12.40;99.90